Time;durP1;ratioP1;P1;durP2;ratioP2;P2;SDS_P1;SDS_P2;PMS_P1;PMS_P2;Temp;Humidity;BMP_temperature;BMP_pressure;BME280_temperature;BME280_humidity;BME280_pressure;Samples;Min_cycle;Max_cycle;Signal;HPM_P1;HPM_P2
2023/04/21 00:00:35;;;;;;;;;;;;;;;30.90;76.25;100626.59;5077484;27;65662;-41
2023/04/21 00:03:06;;;;;;;;;;;;;;;30.94;76.28;100629.69;5096758;27;70314;-40
2023/04/21 00:05:41;;;;;;;;;;;;;;;30.97;76.30;100641.94;5093800;27;66907;-40
2023/04/21 00:08:11;;;;;;;;;;;;;;;30.99;76.59;100640.66;5094531;27;70434;-40
2023/04/21 00:10:42;;;;;;;;;;;;;;;31.00;76.42;100642.31;5091520;27;66980;-41
2023/04/21 00:13:12;;;;;;;;;;;;;;;31.04;77.07;100632.69;5096820;27;70128;-41
2023/04/21 00:15:43;;;;;;;;;;;;;;;31.06;77.03;100635.97;5099020;27;65542;-40
2023/04/21 00:18:13;;;;;;;;;;;;;;;31.06;76.42;100646.81;5079041;27;69314;-40
2023/04/21 00:20:43;;;;;;;;;;;;;;;31.09;76.08;100651.81;5095111;27;67198;-40
2023/04/21 00:23:14;;;;;;;;;;;;;;;31.09;75.88;100651.81;5094220;27;69700;-39
2023/04/21 00:25:44;;;;;;;;;;;;;;;31.12;76.15;100654.06;5095479;27;66224;-39
2023/04/21 00:28:14;;;;;;;;;;;;;;;31.12;75.99;100655.91;5090150;27;70576;-41
2023/04/21 00:30:45;;;;;;;;;;;;;;;31.14;76.38;100660.03;5090252;27;65221;-38
2023/04/21 00:33:15;;;;;;;;;;;;;;;31.15;76.16;100667.16;5088669;27;70313;-40
2023/04/21 00:35:45;;;;;;;;;;;;;;;31.16;76.51;100663.38;5104391;27;65590;-40
2023/04/21 00:38:16;;;;;;;;;;;;;;;31.16;76.24;100668.78;5090560;27;70614;-44
2023/04/21 00:40:46;;;;;;;;;;;;;;;31.20;76.10;100679.16;5084849;27;65689;-41
2023/04/21 00:43:16;;;;;;;;;;;;;;;31.22;76.09;100682.47;5092048;27;70108;-40
2023/04/21 00:45:47;;;;;;;;;;;;;;;31.23;76.77;100686.84;5092414;27;67812;-42
2023/04/21 00:48:17;;;;;;;;;;;;;;;31.22;75.45;100682.47;5107014;27;70781;-42
2023/04/21 00:50:48;;;;;;;;;;;;;;;31.24;73.79;100691.22;5091515;27;66693;-42
2023/04/21 00:53:19;;;;;;;;;;;;;;;31.27;72.89;100693.47;5089314;27;69776;-43
2023/04/21 00:55:50;;;;;;;;;;;;;;;31.30;72.58;100696.56;5100670;27;66912;-43
2023/04/21 00:58:20;;;;;;;;;;;;;;;31.32;71.77;100693.63;5101140;27;70369;-43
2023/04/21 01:00:50;;;;;;;;;;;;;;;31.36;71.29;100695.66;5093518;27;66707;-43
2023/04/21 01:03:21;;;;;;;;;;;;;;;31.39;70.94;100705.22;5097961;27;69911;-42
2023/04/21 01:05:51;;;;;;;;;;;;;;;31.41;70.85;100702.28;5088584;27;66349;-43
2023/04/21 01:08:21;;;;;;;;;;;;;;;31.44;70.72;100707.25;5103136;27;69910;-43
2023/04/21 01:10:52;;;;;;;;;;;;;;;31.46;70.39;100708.69;5089803;27;65574;-43
2023/04/21 01:13:23;;;;;;;;;;;;;;;31.48;70.41;100717.44;5092607;27;70670;-42
2023/04/21 01:15:53;;;;;;;;;;;;;;;31.51;70.53;100714.25;5092730;27;66833;-42
2023/04/21 01:18:23;;;;;;;;;;;;;;;31.54;70.08;100718.41;5093406;27;70114;-42
2023/04/21 01:20:54;;;;;;;;;;;;;;;31.55;70.03;100720.03;5100100;27;66836;-43
2023/04/21 01:23:25;;;;;;;;;;;;;;;31.57;70.86;100724.19;5091109;27;70512;-42
2023/04/21 01:25:55;;;;;;;;;;;;;;;31.60;70.09;100722.91;5090508;27;66821;-40
2023/04/21 01:28:25;;;;;;;;;;;;;;;31.58;74.12;100723.13;5089775;27;70102;-40
2023/04/21 01:30:56;;;;;;;;;;;;;;;31.59;74.67;100726.66;5082923;27;66932;-42
2023/04/21 01:33:27;;;;;;;;;;;;;;;31.59;75.07;100732.91;5086986;27;70237;-43
2023/04/21 01:36:00;;;;;;;;;;;;;;;31.65;75.04;100735.75;5091424;27;66669;-42
2023/04/21 01:38:31;;;;;;;;;;;;;;;31.66;75.03;100732.00;5089752;27;68674;-41
2023/04/21 01:41:01;;;;;;;;;;;;;;;31.67;75.16;100739.06;5085341;27;66722;-40
2023/04/21 01:43:31;;;;;;;;;;;;;;;31.71;75.17;100735.69;5084974;27;69906;-41
2023/04/21 01:46:03;;;;;;;;;;;;;;;31.72;75.10;100736.50;5104485;27;65059;-42
2023/04/21 01:48:33;;;;;;;;;;;;;;;31.74;75.15;100739.81;5098800;27;71053;-41
2023/04/21 01:51:03;;;;;;;;;;;;;;;31.75;75.17;100736.03;5081646;27;66484;-41
2023/04/21 01:53:34;;;;;;;;;;;;;;;31.76;75.20;100743.97;5087771;27;69938;-41
2023/04/21 01:56:04;;;;;;;;;;;;;;;31.76;75.00;100743.09;5088604;27;66285;-42
2023/04/21 01:58:34;;;;;;;;;;;;;;;31.79;75.23;100742.69;5088677;27;70494;-40
2023/04/21 02:01:05;;;;;;;;;;;;;;;31.80;75.34;100738.88;5099909;27;65860;-41
2023/04/21 02:03:35;;;;;;;;;;;;;;;31.81;75.32;100735.09;5088961;27;70383;-41
2023/04/21 02:06:08;;;;;;;;;;;;;;;31.85;74.82;100740.94;5106365;27;66165;-41
2023/04/21 02:08:40;;;;;;;;;;;;;;;31.87;74.87;100745.03;5088420;27;70362;-40
2023/04/21 02:11:11;;;;;;;;;;;;;;;31.88;74.85;100741.28;5082428;27;66801;-41
2023/04/21 02:13:41;;;;;;;;;;;;;;;31.88;74.96;100735.84;5082177;27;70741;-42
2023/04/21 02:16:13;;;;;;;;;;;;;;;31.91;74.93;100740.84;5087641;27;67072;-42
2023/04/21 02:18:47;;;;;;;;;;;;;;;31.92;74.52;100742.50;5092405;27;70278;-43
2023/04/21 02:21:17;;;;;;;;;;;;;;;31.94;74.56;100745.81;5093205;27;66694;-42
2023/04/21 02:23:49;;;;;;;;;;;;;;;31.94;74.58;100740.38;5094318;27;70273;-42
2023/04/21 02:26:20;;;;;;;;;;;;;;;31.98;74.46;100736.16;5109834;27;66085;-42
2023/04/21 02:28:50;;;;;;;;;;;;;;;31.97;74.63;100728.25;5095713;27;69732;-43
2023/04/21 02:31:21;;;;;;;;;;;;;;;31.99;74.51;100726.97;5111936;27;65183;-41
2023/04/21 02:33:51;;;;;;;;;;;;;;;31.98;74.55;100719.88;5093180;27;70660;-42
2023/04/21 02:36:22;;;;;;;;;;;;;;;32.01;74.35;100719.44;5089427;27;65232;-41
2023/04/21 02:38:52;;;;;;;;;;;;;;;32.03;74.18;100722.72;5092979;27;70135;-40
2023/04/21 02:41:23;;;;;;;;;;;;;;;32.02;74.64;100721.06;5095688;27;66022;-39
2023/04/21 02:43:53;;;;;;;;;;;;;;;32.05;74.44;100715.16;5092550;27;70389;-43
2023/04/21 02:46:23;;;;;;;;;;;;;;;32.08;74.36;100718.50;5091589;27;65919;-41
2023/04/21 02:48:54;;;;;;;;;;;;;;;32.08;74.19;100713.06;5089799;27;70433;-42
2023/04/21 02:51:25;;;;;;;;;;;;;;;32.08;74.03;100708.47;5106457;27;66347;-42
2023/04/21 02:53:55;;;;;;;;;;;;;;;32.13;74.20;100707.78;5085561;27;70571;-42
2023/04/21 02:56:26;;;;;;;;;;;;;;;32.12;74.13;100697.97;5104255;27;66712;-42
2023/04/21 02:58:56;;;;;;;;;;;;;;;32.12;74.22;100703.38;5088280;27;69181;-40
2023/04/21 03:01:27;;;;;;;;;;;;;;;32.13;73.98;100699.63;5089141;27;65315;-41
2023/04/21 03:03:57;;;;;;;;;;;;;;;32.16;73.68;100704.59;5090111;27;69773;-41
2023/04/21 03:06:28;;;;;;;;;;;;;;;32.19;73.71;100698.69;5086655;27;66960;-41
2023/04/21 03:08:58;;;;;;;;;;;;;;;32.21;73.74;100702.00;5088215;27;68906;-41
2023/04/21 03:11:28;;;;;;;;;;;;;;;32.23;73.60;100700.72;5085522;27;64358;-41
2023/04/21 03:13:59;;;;;;;;;;;;;;;32.26;73.43;100705.66;5102294;27;70779;-41
2023/04/21 03:16:29;;;;;;;;;;;;;;;32.27;73.47;100698.34;5078213;27;64829;-41
2023/04/21 03:19:00;;;;;;;;;;;;;;;32.27;73.54;100691.03;5092877;27;69339;-43
2023/04/21 03:21:30;;;;;;;;;;;;;;;32.33;73.07;100691.16;5092564;27;66100;-41
2023/04/21 03:24:01;;;;;;;;;;;;;;;32.33;73.46;100694.69;5096392;27;68923;-41
2023/04/21 03:26:31;;;;;;;;;;;;;;;32.34;73.05;100696.34;5098873;27;66790;-42
2023/04/21 03:29:02;;;;;;;;;;;;;;;32.36;73.21;100688.78;5082835;27;70465;-41
2023/04/21 03:31:32;;;;;;;;;;;;;;;32.37;72.85;100695.03;5092723;27;66915;-42
2023/04/21 03:34:02;;;;;;;;;;;;;;;32.39;72.68;100699.16;5097649;27;70348;-41
2023/04/21 03:36:33;;;;;;;;;;;;;;;32.39;72.97;100701.88;5090656;27;66664;-41
2023/04/21 03:39:03;;;;;;;;;;;;;;;32.42;72.80;100700.59;5097722;27;69883;-41
2023/04/21 03:41:50;;;;;;;;;;;;;;;32.41;72.67;100686.19;5093012;27;66579;-43
2023/04/21 03:44:20;;;;;;;;;;;;;;;32.44;72.47;100685.72;5112191;27;70862;-41
2023/04/21 03:46:54;;;;;;;;;;;;;;;32.46;72.18;100697.22;5106281;27;66596;-42
2023/04/21 03:49:24;;;;;;;;;;;;;;;32.47;72.34;100679.84;5091756;27;70625;-42
2023/04/21 03:51:55;;;;;;;;;;;;;;;32.47;72.43;100685.28;5088341;27;66156;-41
2023/04/21 03:54:25;;;;;;;;;;;;;;;32.48;72.67;100672.53;5095243;27;69703;-41
2023/04/21 03:56:55;;;;;;;;;;;;;;;32.53;72.52;100671.81;5101036;27;66826;-42
2023/04/21 03:59:26;;;;;;;;;;;;;;;32.42;70.35;100668.84;5090439;27;70457;-41
2023/04/21 04:01:56;;;;;;;;;;;;;;;32.26;67.76;100667.66;5090482;27;66947;-41
2023/04/21 04:04:26;;;;;;;;;;;;;;;32.11;65.03;100652.91;5096073;27;68793;-41
2023/04/21 04:06:57;;;;;;;;;;;;;;;31.47;63.63;100579.41;5096422;27;66420;-41
2023/04/21 04:09:28;;;;;;;;;;;;;;;31.85;62.28;100646.81;5099557;27;70545;-41
2023/04/21 04:11:58;;;;;;;;;;;;;;;31.75;60.77;100654.69;5095700;27;66858;-42
2023/04/21 04:14:29;;;;;;;;;;;;;;;31.67;59.97;100646.88;5091422;27;70704;-42
2023/04/21 04:16:59;;;;;;;;;;;;;;;31.56;58.54;100635.75;5094236;27;67077;-42
2023/04/21 04:19:31;;;;;;;;;;;;;;;31.49;57.28;100635.03;5088678;27;70510;-43
2023/04/21 04:22:01;;;;;;;;;;;;;;;31.44;56.79;100632.19;5095338;27;65599;-41
2023/04/21 04:24:34;;;;;;;;;;;;;;;31.41;55.64;100627.22;5089919;27;70895;-42
2023/04/21 04:27:05;;;;;;;;;;;;;;;31.36;54.53;100627.91;5090848;27;66107;-42
2023/04/21 04:29:35;;;;;;;;;;;;;;;31.33;53.52;100622.09;5096792;27;70290;-43
2023/04/21 04:32:08;;;;;;;;;;;;;;;31.28;53.57;100616.53;5093476;27;66545;-42
2023/04/21 04:34:38;;;;;;;;;;;;;;;31.25;52.29;100617.00;5091595;27;69124;-42
2023/04/21 04:37:10;;;;;;;;;;;;;;;31.25;51.69;100614.28;5097366;27;66225;-42
2023/04/21 04:39:41;;;;;;;;;;;;;;;31.25;51.13;100600.72;5094747;27;70254;-41
2023/04/21 04:42:11;;;;;;;;;;;;;;;31.23;50.73;100594.69;5090808;27;66728;-41
2023/04/21 04:44:41;;;;;;;;;;;;;;;31.22;50.07;100584.94;5092751;27;70080;-42
2023/04/21 04:47:12;;;;;;;;;;;;;;;31.16;49.84;100592.91;5114436;27;65243;-42
2023/04/21 04:49:42;;;;;;;;;;;;;;;31.14;49.17;100576.06;5091017;27;70898;-43
2023/04/21 04:52:13;;;;;;;;;;;;;;;31.13;48.88;100582.53;5097137;27;66096;-41
2023/04/21 04:54:43;;;;;;;;;;;;;;;31.09;48.53;100570.53;5087567;27;70455;-41
2023/04/21 04:57:13;;;;;;;;;;;;;;;31.11;47.98;100564.88;5084422;27;66273;-41
2023/04/21 04:59:43;;;;;;;;;;;;;;;31.08;47.52;100558.03;5096306;27;70105;-41
2023/04/21 05:02:14;;;;;;;;;;;;;;;31.07;47.10;100561.78;5099115;27;65829;-41
2023/04/21 05:04:44;;;;;;;;;;;;;;;31.04;46.93;100550.59;5096286;27;70895;-41
2023/04/21 05:07:15;;;;;;;;;;;;;;;31.03;46.27;100544.31;5097543;27;66027;-43
2023/04/21 05:09:45;;;;;;;;;;;;;;;31.00;46.32;100539.38;5096901;27;70280;-41
2023/04/21 05:12:16;;;;;;;;;;;;;;;31.01;46.12;100535.63;5095778;27;66014;-41
2023/04/21 05:14:46;;;;;;;;;;;;;;;31.02;45.58;100526.44;5096489;27;69938;-42
2023/04/21 05:17:16;;;;;;;;;;;;;;;30.99;45.38;100532.31;5094872;27;66111;-42
2023/04/21 05:19:46;;;;;;;;;;;;;;;30.97;45.06;100518.16;5090252;27;70177;-43
2023/04/21 05:22:16;;;;;;;;;;;;;;;30.97;45.66;100512.75;5089900;27;66959;-42
2023/04/21 05:24:47;;;;;;;;;;;;;;;30.98;45.41;100506.28;5091138;27;69860;-41
2023/04/21 05:27:17;;;;;;;;;;;;;;;30.97;45.13;100511.94;5096779;27;66127;-42
2023/04/21 05:29:47;;;;;;;;;;;;;;;30.98;44.83;100509.00;5092137;27;70598;-42
2023/04/21 05:32:17;;;;;;;;;;;;;;;30.98;44.83;100498.16;5097051;27;65913;-43
2023/04/21 05:34:48;;;;;;;;;;;;;;;31.00;45.06;100482.50;5091894;27;69782;-42
2023/04/21 05:37:18;;;;;;;;;;;;;;;31.02;45.30;100474.97;5095785;27;66808;-42
2023/04/21 05:39:50;;;;;;;;;;;;;;;31.05;45.10;100470.97;5095900;27;69603;-42
2023/04/21 05:42:20;;;;;;;;;;;;;;;31.05;45.04;100457.44;5087578;27;67321;-42
2023/04/21 05:44:51;;;;;;;;;;;;;;;31.01;45.11;100454.38;5090105;27;70674;-41
2023/04/21 05:47:21;;;;;;;;;;;;;;;31.06;45.06;100445.53;5095169;27;66319;-43
2023/04/21 05:49:52;;;;;;;;;;;;;;;31.02;44.25;100438.94;5093547;27;70174;-42
2023/04/21 05:52:25;;;;;;;;;;;;;;;31.05;44.07;100436.56;5092320;27;66645;-41
2023/04/21 05:54:55;;;;;;;;;;;;;;;31.07;44.49;100430.94;5091546;27;70336;-41
2023/04/21 05:57:26;;;;;;;;;;;;;;;31.04;44.12;100415.16;5102985;27;67222;-42
2023/04/21 05:59:56;;;;;;;;;;;;;;;31.03;43.90;100419.72;5099852;27;70607;-42
2023/04/21 06:02:26;;;;;;;;;;;;;;;31.07;43.54;100415.50;5099483;27;66917;-42
2023/04/21 06:04:57;;;;;;;;;;;;;;;31.06;43.25;100400.28;5098167;27;69218;-42
2023/04/21 06:07:27;;;;;;;;;;;;;;;31.09;43.41;100405.28;5096840;27;66655;-41
2023/04/21 06:09:58;;;;;;;;;;;;;;;31.26;59.18;100407.25;5086037;27;69691;-41
2023/04/21 06:12:28;;;;;;;;;;;;;;;31.54;60.77;100393.91;5083621;27;64557;-42
2023/04/21 06:15:00;;;;;;;;;;;;;;;31.76;58.91;100396.81;5090952;27;69883;-40
2023/04/21 06:17:31;;;;;;;;;;;;;;;31.96;58.11;100384.78;5080361;27;66597;-41
2023/04/21 06:20:04;;;;;;;;;;;;;;;32.14;58.62;100375.66;5098628;27;70800;-41
2023/04/21 06:22:39;;;;;;;;;;;;;;;32.30;59.01;100364.03;5087260;27;65428;-41
2023/04/21 06:25:10;;;;;;;;;;;;;;;32.43;60.04;100363.75;5091760;27;69652;-42
2023/04/21 06:27:40;;;;;;;;;;;;;;;32.56;60.15;100362.63;5098592;27;66830;-41
2023/04/21 06:30:11;;;;;;;;;;;;;;;32.68;60.41;100354.41;5090280;27;69404;-42
2023/04/21 06:32:41;;;;;;;;;;;;;;;32.78;60.81;100346.44;5109211;27;66579;-42
2023/04/21 06:35:13;;;;;;;;;;;;;;;32.88;61.37;100349.34;5089037;27;68780;-41
2023/04/21 06:37:44;;;;;;;;;;;;;;;32.99;61.34;100350.34;5091757;27;66394;-40
2023/04/21 06:40:15;;;;;;;;;;;;;;;33.07;61.46;100341.78;5099758;27;70767;-41
2023/04/21 06:42:45;;;;;;;;;;;;;;;33.17;61.53;100340.28;5110631;27;67039;-41
2023/04/21 06:45:15;;;;;;;;;;;;;;;33.24;61.24;100336.34;5099531;27;70872;-41
2023/04/21 06:47:45;;;;;;;;;;;;;;;33.31;61.44;100326.09;5095769;27;66582;-41
2023/04/21 06:50:16;;;;;;;;;;;;;;;33.38;61.32;100321.31;5093953;27;69733;-42
2023/04/21 06:52:51;;;;;;;;;;;;;;;33.44;61.17;100313.22;5084736;27;66635;-42
2023/04/21 06:55:24;;;;;;;;;;;;;;;33.51;61.36;100311.13;5090670;27;69860;-41
2023/04/21 06:57:55;;;;;;;;;;;;;;;33.58;61.27;100303.66;5096775;27;66865;-42
2023/04/21 07:00:25;;;;;;;;;;;;;;;33.64;60.91;100305.38;5095348;27;70720;-41
2023/04/21 07:03:15;;;;;;;;;;;;;;;33.70;60.63;100295.38;5092056;27;66663;-41
2023/04/21 07:05:52;;;;;;;;;;;;;;;33.76;60.48;100284.28;5104572;27;69942;-42
2023/04/21 07:08:27;;;;;;;;;;;;;;;33.84;60.50;100287.63;5095681;27;66477;-42
2023/04/21 07:10:57;;;;;;;;;;;;;;;33.88;60.11;100280.59;5087951;27;71854;-41
2023/04/21 07:13:28;;;;;;;;;;;;;;;33.94;60.03;100276.88;5094124;27;65285;-42
2023/04/21 07:15:58;;;;;;;;;;;;;;;34.00;60.10;100275.84;5095554;27;69557;-41
2023/04/21 07:18:29;;;;;;;;;;;;;;;34.06;59.94;100280.28;5094422;27;66730;-41
2023/04/21 07:21:00;;;;;;;;;;;;;;;34.11;59.34;100277.63;5097127;27;69285;-42
2023/04/21 07:23:30;;;;;;;;;;;;;;;34.16;59.46;100283.13;5093415;27;66183;-41
2023/04/21 07:26:00;;;;;;;;;;;;;;;34.20;59.31;100262.47;5093851;27;70086;-42
2023/04/21 07:28:31;;;;;;;;;;;;;;;34.24;59.18;100260.88;5091024;27;66197;-41
2023/04/21 07:31:01;;;;;;;;;;;;;;;34.31;59.22;100259.84;5090054;27;69774;-41
2023/04/21 07:33:32;;;;;;;;;;;;;;;34.36;59.23;100255.28;5094444;27;65361;-42
2023/04/21 07:36:02;;;;;;;;;;;;;;;34.42;58.73;100247.97;5092280;27;70454;-41
2023/04/21 07:38:33;;;;;;;;;;;;;;;34.47;58.83;100240.66;5091614;27;66749;-42
2023/04/21 07:41:04;;;;;;;;;;;;;;;34.52;58.41;100233.59;5092845;27;69395;-41
2023/04/21 07:43:35;;;;;;;;;;;;;;;34.55;58.16;100228.47;5093368;27;65583;-41
2023/04/21 07:46:05;;;;;;;;;;;;;;;34.61;58.50;100234.81;5089991;27;69701;-41
2023/04/21 07:48:36;;;;;;;;;;;;;;;34.65;58.10;100231.28;5094600;27;66803;-42
2023/04/21 07:51:06;;;;;;;;;;;;;;;34.69;58.09;100237.84;5092495;27;70495;-43
2023/04/21 07:53:36;;;;;;;;;;;;;;;34.74;58.23;100233.50;5090483;27;66891;-42
2023/04/21 07:56:07;;;;;;;;;;;;;;;34.79;57.72;100236.28;5089457;27;70036;-42
2023/04/21 07:58:37;;;;;;;;;;;;;;;34.84;57.75;100237.13;5101214;27;66493;-41
2023/04/21 08:01:08;;;;;;;;;;;;;;;34.86;57.56;100221.34;5091554;27;70627;-40
2023/04/21 08:03:38;;;;;;;;;;;;;;;34.91;57.68;100212.41;5086865;27;66800;-40
2023/04/21 08:06:16;;;;;;;;;;;;;;;34.93;57.96;100205.56;5091359;27;69372;-42
2023/04/21 08:08:47;;;;;;;;;;;;;;;34.96;57.22;100193.31;5093681;27;67073;-41
2023/04/21 08:11:18;;;;;;;;;;;;;;;34.97;57.28;100189.53;5094767;27;69810;-42
2023/04/21 08:13:48;;;;;;;;;;;;;;;35.01;57.20;100196.06;5093909;27;66193;-41
2023/04/21 08:16:18;;;;;;;;;;;;;;;35.04;57.35;100197.47;5097835;27;70597;-42
2023/04/21 08:18:52;;;;;;;;;;;;;;;35.05;57.43;100191.75;5092041;27;60419;-41
2023/04/21 08:21:23;;;;;;;;;;;;;;;35.06;57.51;100196.13;5086389;27;70358;-40
2023/04/21 08:23:54;;;;;;;;;;;;;;;35.07;57.58;100191.50;5092381;27;65118;-40
2023/04/21 08:26:25;;;;;;;;;;;;;;;35.08;57.71;100188.53;5091221;27;70150;-41
2023/04/21 08:28:56;;;;;;;;;;;;;;;35.09;58.21;100181.97;5089933;27;66888;-40
2023/04/21 08:31:26;;;;;;;;;;;;;;;35.12;58.45;100186.91;5092190;27;71484;-39
2023/04/21 08:33:57;;;;;;;;;;;;;;;35.14;58.51;100183.91;5095752;27;66367;-41
2023/04/21 08:36:30;;;;;;;;;;;;;;;35.14;58.86;100179.28;5092262;27;69863;-41
2023/04/21 08:39:01;;;;;;;;;;;;;;;35.19;58.32;100174.91;5091696;27;66214;-42
2023/04/21 08:41:31;;;;;;;;;;;;;;;35.19;58.79;100175.75;5097155;27;70020;-41
2023/04/21 08:44:02;;;;;;;;;;;;;;;35.22;58.66;100174.41;5090918;27;66713;-40
2023/04/21 08:46:32;;;;;;;;;;;;;;;35.24;58.74;100183.13;5092633;27;70511;-41
2023/04/21 08:49:03;;;;;;;;;;;;;;;35.26;58.34;100197.31;5092301;27;66858;-41
2023/04/21 08:51:33;;;;;;;;;;;;;;;35.28;58.24;100195.97;5095163;27;70725;-40
2023/04/21 08:54:05;;;;;;;;;;;;;;;35.28;58.55;100195.97;5094201;27;67988;-41
2023/04/21 08:56:35;;;;;;;;;;;;;;;35.29;58.07;100181.22;5087266;27;70029;-42
2023/04/21 08:59:06;;;;;;;;;;;;;;;35.29;58.02;100170.31;5092817;27;66603;-41
2023/04/21 09:01:54;;;;;;;;;;;;;;;35.30;58.05;100171.13;5095354;27;70701;-41
2023/04/21 09:04:25;;;;;;;;;;;;;;;35.31;58.63;100178.25;5090252;27;66987;-42
2023/04/21 09:06:55;;;;;;;;;;;;;;;35.32;58.86;100183.41;5091243;27;70757;-43
2023/04/21 09:09:26;;;;;;;;;;;;;;;35.31;58.81;100189.97;5095791;27;66283;-42
2023/04/21 09:12:00;;;;;;;;;;;;;;;35.32;58.87;100185.34;5090179;27;70294;-41
2023/04/21 09:14:32;;;;;;;;;;;;;;;35.33;58.70;100189.72;5092141;27;66979;-41
2023/04/21 09:17:03;;;;;;;;;;;;;;;35.33;58.30;100178.81;5103275;27;69988;-42
2023/04/21 09:19:33;;;;;;;;;;;;;;;35.34;58.74;100177.72;5092833;27;66171;-41
2023/04/21 09:22:05;;;;;;;;;;;;;;;35.33;59.01;100181.53;5097827;27;68698;-39
2023/04/21 09:24:35;;;;;;;;;;;;;;;35.35;59.15;100182.91;5090798;27;66687;-42
2023/04/21 09:27:05;;;;;;;;;;;;;;;35.38;58.90;100178.81;5096461;27;71106;-42
2023/04/21 09:29:35;;;;;;;;;;;;;;;35.12;61.59;100176.00;5093282;27;66934;-41
2023/04/21 09:32:11;;;;;;;;;;;;;;;34.97;63.45;100181.34;5108408;27;70193;-42
2023/04/21 09:34:42;;;;;;;;;;;;;;;34.87;64.62;100195.72;5100422;27;65966;-41
2023/04/21 09:37:13;;;;;;;;;;;;;;;34.79;64.65;100198.13;5094315;27;70584;-42
2023/04/21 09:39:47;;;;;;;;;;;;;;;34.74;65.79;100204.38;5095698;27;67082;-41
2023/04/21 09:42:34;;;;;;;;;;;;;;;34.68;66.30;100197.25;5093960;27;69205;-41
2023/04/21 09:45:12;;;;;;;;;;;;;;;34.63;66.79;100200.78;5091023;27;66476;-42
2023/04/21 09:47:50;;;;;;;;;;;;;;;34.59;67.11;100191.47;5097480;27;69601;-41
2023/04/21 09:50:21;;;;;;;;;;;;;;;34.61;67.06;100196.69;5091206;27;65686;-40
2023/04/21 09:53:14;;;;;;;;;;;;;;;34.57;67.21;100188.19;5091541;27;69748;-40
2023/04/21 09:55:47;;;;;;;;;;;;;;;34.56;67.07;100186.56;5093693;27;64870;-41
2023/04/21 09:58:19;;;;;;;;;;;;;;;34.53;65.96;100186.25;5084982;27;69905;-41
2023/04/21 10:00:51;;;;;;;;;;;;;;;34.47;65.51;100191.66;5090640;27;65581;-40
2023/04/21 10:03:23;;;;;;;;;;;;;;;34.51;65.25;100197.38;5090448;27;69970;-41
2023/04/21 10:05:54;;;;;;;;;;;;;;;34.50;65.49;100205.81;5087310;27;66407;-42
2023/04/21 10:08:24;;;;;;;;;;;;;;;34.48;65.37;100216.97;5092430;27;69201;-41
2023/04/21 10:10:55;;;;;;;;;;;;;;;34.48;65.19;100222.41;5094140;27;64624;-40
2023/04/21 10:13:25;;;;;;;;;;;;;;;34.47;65.20;100231.66;5090586;27;69351;-44
2023/04/21 10:16:06;;;;;;;;;;;;;;;34.48;65.39;100225.13;5086730;27;65786;-41
2023/04/21 10:18:38;;;;;;;;;;;;;;;34.49;64.73;100221.31;5095465;27;69222;-41
2023/04/21 10:21:10;;;;;;;;;;;;;;;34.42;64.58;100212.56;5087884;27;67179;-43
2023/04/21 10:23:47;;;;;;;;;;;;;;;34.45;65.03;100225.66;5089997;27;68742;-43
2023/04/21 10:26:17;;;;;;;;;;;;;;;34.46;64.78;100233.59;5090966;27;67016;-39
2023/04/21 10:29:00;;;;;;;;;;;;;;;34.59;64.19;100232.31;5093860;27;70638;-42
2023/04/21 10:31:49;;;;;;;;;;;;;;;34.69;64.05;100240.59;5098806;27;66374;-42
2023/04/21 10:34:26;;;;;;;;;;;;;;;34.79;63.28;100228.09;5090119;27;69913;-40
2023/04/21 10:36:56;;;;;;;;;;;;;;;34.84;63.06;100222.69;5086652;27;66828;-41
2023/04/21 10:39:28;;;;;;;;;;;;;;;34.87;62.80;100227.63;5093588;27;69621;-41
2023/04/21 10:42:23;;;;;;;;;;;;;;;34.90;63.22;100227.09;5094477;27;66412;-41
2023/04/21 10:45:01;;;;;;;;;;;;;;;34.93;63.40;100218.38;5093986;27;71029;-42
2023/04/21 10:47:43;;;;;;;;;;;;;;;34.93;63.29;100216.47;5098288;27;66227;-41
2023/04/21 10:50:14;;;;;;;;;;;;;;;34.95;62.98;100218.94;5088363;27;70472;-41
2023/04/21 10:52:45;;;;;;;;;;;;;;;34.95;64.01;100235.28;5087043;27;66029;-41
2023/04/21 10:55:16;;;;;;;;;;;;;;;34.98;63.94;100250.31;5085045;27;70298;-41
2023/04/21 10:57:46;;;;;;;;;;;;;;;34.99;63.87;100252.75;5097262;27;65786;-40
2023/04/21 11:00:19;;;;;;;;;;;;;;;35.00;63.75;100259.03;5084336;27;70125;-39
2023/04/21 11:02:57;;;;;;;;;;;;;;;34.87;64.21;100233.06;5084429;27;66964;-47
2023/04/21 11:05:39;;;;;;;;;;;;;;;34.55;64.58;100208.56;5089378;27;69661;-40
2023/04/21 11:08:13;;;;;;;;;;;;;;;34.11;62.99;100209.59;5084650;27;65925;-41
2023/04/21 11:10:44;;;;;;;;;;;;;;;33.90;60.28;100229.47;5093362;27;69031;-42
2023/04/21 11:13:14;;;;;;;;;;;;;;;33.64;59.28;100253.69;5087361;27;66228;-42
2023/04/21 11:16:02;;;;;;;;;;;;;;;33.44;58.62;100280.59;5085919;27;68852;-45
2023/04/21 11:18:32;;;;;;;;;;;;;;;33.24;57.00;100283.84;5089542;27;66707;-44
2023/04/21 11:21:17;;;;;;;;;;;;;;;33.06;56.19;100284.97;5090859;27;70332;-60
2023/04/21 11:23:49;;;;;;;;;;;;;;;32.85;56.86;100260.19;5087072;27;66106;-43
2023/04/21 11:26:29;;;;;;;;;;;;;;;32.68;55.98;100259.34;5087776;27;69961;-45
2023/04/21 11:29:00;;;;;;;;;;;;;;;32.56;55.11;100292.03;5090514;27;66642;-44
2023/04/21 11:31:31;;;;;;;;;;;;;;;32.48;54.02;100322.28;5094256;27;70202;-45
2023/04/21 11:34:05;;;;;;;;;;;;;;;32.35;53.06;100334.28;5087343;27;66394;-45
2023/04/21 11:36:36;;;;;;;;;;;;;;;32.24;52.77;100316.16;5088587;27;70088;-44
2023/04/21 11:39:09;;;;;;;;;;;;;;;32.18;52.09;100289.97;5089961;27;66194;-42
2023/04/21 11:41:43;;;;;;;;;;;;;;;32.11;52.33;100289.31;5088226;27;70548;-45
2023/04/21 11:44:14;;;;;;;;;;;;;;;32.04;52.03;100284.84;5087074;27;65349;-44
2023/04/21 11:46:45;;;;;;;;;;;;;;;32.03;51.82;100302.19;5089495;27;69613;-42
2023/04/21 11:49:17;;;;;;;;;;;;;;;31.99;51.78;100309.16;5091267;27;66249;-42
2023/04/21 11:51:49;;;;;;;;;;;;;;;31.96;51.72;100304.22;5091930;27;68954;-41
2023/04/21 11:54:23;;;;;;;;;;;;;;;31.91;51.81;100306.84;5095436;27;67158;-43
2023/04/21 11:56:53;;;;;;;;;;;;;;;31.86;51.75;100301.28;5100718;27;70250;-43
2023/04/21 11:59:25;;;;;;;;;;;;;;;31.80;51.14;100294.09;5094051;27;65955;-41
2023/04/21 12:01:55;;;;;;;;;;;;;;;31.73;50.73;100305.09;5097012;27;70609;-42
2023/04/21 12:04:26;;;;;;;;;;;;;;;31.68;50.69;100306.84;5088201;27;66084;-44
2023/04/21 12:07:00;;;;;;;;;;;;;;;31.68;51.09;100307.72;5090948;27;70044;-44
2023/04/21 12:09:30;;;;;;;;;;;;;;;31.64;50.72;100301.09;5093626;27;65731;-43
2023/04/21 12:12:04;;;;;;;;;;;;;;;31.63;51.50;100293.22;5093549;27;68942;-42
2023/04/21 12:14:34;;;;;;;;;;;;;;;31.54;51.20;100285.47;5094874;27;66940;-44
2023/04/21 12:17:05;;;;;;;;;;;;;;;31.50;51.34;100283.44;5091383;27;70650;-41
2023/04/21 12:19:40;;;;;;;;;;;;;;;31.44;51.92;100293.38;5093446;27;66101;-43
2023/04/21 12:22:11;;;;;;;;;;;;;;;31.42;51.50;100303.59;5091933;27;70111;-45
2023/04/21 12:24:42;;;;;;;;;;;;;;;31.36;51.26;100299.16;5101860;27;66222;-43
2023/04/21 12:27:12;;;;;;;;;;;;;;;31.37;50.71;100295.38;5096514;27;69290;-44
2023/04/21 12:29:43;;;;;;;;;;;;;;;31.33;50.94;100288.75;5094183;27;66169;-41
2023/04/21 12:32:14;;;;;;;;;;;;;;;31.30;49.90;100300.88;5094155;27;70512;-41
2023/04/21 12:34:44;;;;;;;;;;;;;;;31.27;49.46;100311.38;5097026;27;66592;-42
2023/04/21 12:37:15;;;;;;;;;;;;;;;31.23;49.32;100321.03;5094718;27;70175;-41
2023/04/21 12:39:45;;;;;;;;;;;;;;;31.16;48.37;100327.41;5092597;27;65678;-40
2023/04/21 12:42:15;;;;;;;;;;;;;;;31.14;48.09;100315.97;5098772;27;70263;-41
2023/04/21 12:44:46;;;;;;;;;;;;;;;31.15;47.60;100325.75;5077127;27;66987;-41
2023/04/21 12:47:16;;;;;;;;;;;;;;;31.11;47.33;100329.97;5094026;27;69926;-41
2023/04/21 12:49:46;;;;;;;;;;;;;;;31.10;46.95;100332.94;5094559;27;65706;-41
2023/04/21 12:52:16;;;;;;;;;;;;;;;31.09;49.04;100331.28;5093961;27;69527;-41
2023/04/21 12:54:47;;;;;;;;;;;;;;;31.07;49.43;100334.25;5093207;27;67001;-42
2023/04/21 12:57:17;;;;;;;;;;;;;;;31.08;51.14;100341.28;5098461;27;70727;-41